sensor_id;sensor_type;location;lat;lon;timestamp;temperature;humidity
68109;SHT30;54893;49.864;19.084;2023-07-16T00:04:20;23.62;65.85
68109;SHT30;54893;49.864;19.084;2023-07-16T00:09:20;23.47;65.52
68109;SHT30;54893;49.864;19.084;2023-07-16T00:14:20;23.46;66.15
68109;SHT30;54893;49.864;19.084;2023-07-16T00:19:21;23.63;65.55
68109;SHT30;54893;49.864;19.084;2023-07-16T00:24:21;23.52;65.79
68109;SHT30;54893;49.864;19.084;2023-07-16T00:29:21;23.60;65.44
68109;SHT30;54893;49.864;19.084;2023-07-16T00:34:22;23.47;65.61
68109;SHT30;54893;49.864;19.084;2023-07-16T00:39:22;23.02;68.83
68109;SHT30;54893;49.864;19.084;2023-07-16T00:44:23;22.73;68.08
68109;SHT30;54893;49.864;19.084;2023-07-16T00:49:23;22.56;68.93
68109;SHT30;54893;49.864;19.084;2023-07-16T00:54:24;21.81;71.56
68109;SHT30;54893;49.864;19.084;2023-07-16T00:59:24;21.93;71.16
68109;SHT30;54893;49.864;19.084;2023-07-16T01:04:25;21.88;71.01
68109;SHT30;54893;49.864;19.084;2023-07-16T01:09:25;22.11;70.12
68109;SHT30;54893;49.864;19.084;2023-07-16T01:14:26;22.08;70.05
68109;SHT30;54893;49.864;19.084;2023-07-16T01:19:27;22.17;69.95
68109;SHT30;54893;49.864;19.084;2023-07-16T01:30:01;21.32;72.77
68109;SHT30;54893;49.864;19.084;2023-07-16T01:35:04;21.56;72.32
68109;SHT30;54893;49.864;19.084;2023-07-16T01:40:07;21.88;71.82
68109;SHT30;54893;49.864;19.084;2023-07-16T01:45:09;21.70;71.85
68109;SHT30;54893;49.864;19.084;2023-07-16T01:50:10;21.13;74.15
68109;SHT30;54893;49.864;19.084;2023-07-16T01:55:10;21.06;74.84
68109;SHT30;54893;49.864;19.084;2023-07-16T02:00:11;20.85;75.02
68109;SHT30;54893;49.864;19.084;2023-07-16T02:05:11;20.49;75.88
68109;SHT30;54893;49.864;19.084;2023-07-16T02:10:12;20.58;76.16
68109;SHT30;54893;49.864;19.084;2023-07-16T02:15:12;20.26;76.31
68109;SHT30;54893;49.864;19.084;2023-07-16T02:20:12;20.78;75.44
68109;SHT30;54893;49.864;19.084;2023-07-16T02:25:13;20.38;76.39
68109;SHT30;54893;49.864;19.084;2023-07-16T02:30:14;20.49;76.60
68109;SHT30;54893;49.864;19.084;2023-07-16T02:35:15;20.32;77.00
68109;SHT30;54893;49.864;19.084;2023-07-16T02:40:15;20.10;77.81
68109;SHT30;54893;49.864;19.084;2023-07-16T02:45:16;20.29;78.72
68109;SHT30;54893;49.864;19.084;2023-07-16T02:50:17;20.48;76.99
68109;SHT30;54893;49.864;19.084;2023-07-16T02:55:17;20.34;76.92
68109;SHT30;54893;49.864;19.084;2023-07-16T03:00:18;20.99;75.20
68109;SHT30;54893;49.864;19.084;2023-07-16T03:05:18;20.64;76.11
68109;SHT30;54893;49.864;19.084;2023-07-16T03:10:20;20.35;76.48
68109;SHT30;54893;49.864;19.084;2023-07-16T03:15:20;20.32;77.09
68109;SHT30;54893;49.864;19.084;2023-07-16T03:20:21;20.59;76.18
68109;SHT30;54893;49.864;19.084;2023-07-16T03:25:21;20.39;76.60
68109;SHT30;54893;49.864;19.084;2023-07-16T03:30:22;20.83;75.17
68109;SHT30;54893;49.864;19.084;2023-07-16T03:35:22;20.61;76.08
68109;SHT30;54893;49.864;19.084;2023-07-16T03:40:26;21.27;74.57
68109;SHT30;54893;49.864;19.084;2023-07-16T03:45:26;20.83;76.30
68109;SHT30;54893;49.864;19.084;2023-07-16T03:50:27;20.86;76.33
68109;SHT30;54893;49.864;19.084;2023-07-16T03:55:27;20.83;76.45
68109;SHT30;54893;49.864;19.084;2023-07-16T04:00:27;21.13;75.47
68109;SHT30;54893;49.864;19.084;2023-07-16T04:05:28;21.23;76.00
68109;SHT30;54893;49.864;19.084;2023-07-16T04:10:28;21.23;77.08
68109;SHT30;54893;49.864;19.084;2023-07-16T04:15:29;21.94;75.46
68109;SHT30;54893;49.864;19.084;2023-07-16T04:20:29;21.96;76.10
68109;SHT30;54893;49.864;19.084;2023-07-16T04:25:30;22.41;74.79
68109;SHT30;54893;49.864;19.084;2023-07-16T04:30:31;23.05;73.60
68109;SHT30;54893;49.864;19.084;2023-07-16T04:35:32;23.92;71.87
68109;SHT30;54893;49.864;19.084;2023-07-16T04:40:33;24.69;70.26
68109;SHT30;54893;49.864;19.084;2023-07-16T04:45:34;24.42;71.73
68109;SHT30;54893;49.864;19.084;2023-07-16T04:50:34;24.38;72.91
68109;SHT30;54893;49.864;19.084;2023-07-16T04:55:38;24.37;73.80
68109;SHT30;54893;49.864;19.084;2023-07-16T05:00:42;24.58;73.05
68109;SHT30;54893;49.864;19.084;2023-07-16T05:05:42;25.53;71.79
68109;SHT30;54893;49.864;19.084;2023-07-16T05:10:43;25.58;71.99
68109;SHT30;54893;49.864;19.084;2023-07-16T05:15:44;26.38;68.62
68109;SHT30;54893;49.864;19.084;2023-07-16T05:20:47;27.45;65.59
68109;SHT30;54893;49.864;19.084;2023-07-16T05:25:49;27.90;64.56
68109;SHT30;54893;49.864;19.084;2023-07-16T05:31:00;28.06;63.66
68109;SHT30;54893;49.864;19.084;2023-07-16T05:36:00;28.25;63.73
68109;SHT30;54893;49.864;19.084;2023-07-16T05:41:02;28.81;63.00
68109;SHT30;54893;49.864;19.084;2023-07-16T05:46:03;29.10;60.67
68109;SHT30;54893;49.864;19.084;2023-07-16T05:51:05;29.62;61.05
68109;SHT30;54893;49.864;19.084;2023-07-16T05:56:05;29.72;60.33
68109;SHT30;54893;49.864;19.084;2023-07-16T06:01:06;30.09;59.96
68109;SHT30;54893;49.864;19.084;2023-07-16T06:06:08;30.08;59.92
68109;SHT30;54893;49.864;19.084;2023-07-16T06:11:09;30.24;59.15
68109;SHT30;54893;49.864;19.084;2023-07-16T06:16:10;30.39;58.84
68109;SHT30;54893;49.864;19.084;2023-07-16T06:21:10;30.26;58.45
68109;SHT30;54893;49.864;19.084;2023-07-16T06:26:11;30.84;58.14
68109;SHT30;54893;49.864;19.084;2023-07-16T06:31:11;30.57;56.44
68109;SHT30;54893;49.864;19.084;2023-07-16T06:36:15;31.21;56.63
68109;SHT30;54893;49.864;19.084;2023-07-16T06:41:15;31.14;56.12
68109;SHT30;54893;49.864;19.084;2023-07-16T06:46:15;31.15;56.64
68109;SHT30;54893;49.864;19.084;2023-07-16T06:51:16;31.10;55.90
68109;SHT30;54893;49.864;19.084;2023-07-16T06:56:16;31.37;55.73
68109;SHT30;54893;49.864;19.084;2023-07-16T07:01:16;31.41;54.53
68109;SHT30;54893;49.864;19.084;2023-07-16T07:06:17;31.49;55.29
68109;SHT30;54893;49.864;19.084;2023-07-16T07:11:17;31.39;54.98
68109;SHT30;54893;49.864;19.084;2023-07-16T07:16:18;31.41;54.59
68109;SHT30;54893;49.864;19.084;2023-07-16T07:21:19;31.45;55.21
68109;SHT30;54893;49.864;19.084;2023-07-16T07:26:19;31.65;55.11
68109;SHT30;54893;49.864;19.084;2023-07-16T07:31:20;31.46;54.22
68109;SHT30;54893;49.864;19.084;2023-07-16T07:36:20;31.15;56.27
68109;SHT30;54893;49.864;19.084;2023-07-16T07:41:21;31.55;54.91
68109;SHT30;54893;49.864;19.084;2023-07-16T07:46:21;31.45;54.36
68109;SHT30;54893;49.864;19.084;2023-07-16T07:51:21;31.51;54.98
68109;SHT30;54893;49.864;19.084;2023-07-16T07:56:22;31.63;54.32
68109;SHT30;54893;49.864;19.084;2023-07-16T08:01:22;31.99;54.82
68109;SHT30;54893;49.864;19.084;2023-07-16T08:06:22;32.09;53.73
68109;SHT30;54893;49.864;19.084;2023-07-16T08:11:23;32.22;53.66
68109;SHT30;54893;49.864;19.084;2023-07-16T08:16:23;32.03;52.00
68109;SHT30;54893;49.864;19.084;2023-07-16T08:21:23;31.76;52.92
68109;SHT30;54893;49.864;19.084;2023-07-16T08:26:24;31.15;52.77
68109;SHT30;54893;49.864;19.084;2023-07-16T08:31:24;31.46;53.41
68109;SHT30;54893;49.864;19.084;2023-07-16T08:36:25;31.96;54.06
68109;SHT30;54893;49.864;19.084;2023-07-16T08:41:26;32.09;54.39
68109;SHT30;54893;49.864;19.084;2023-07-16T08:46:27;31.75;55.79
68109;SHT30;54893;49.864;19.084;2023-07-16T08:51:28;31.97;54.00
68109;SHT30;54893;49.864;19.084;2023-07-16T08:56:29;31.43;54.38
68109;SHT30;54893;49.864;19.084;2023-07-16T09:01:29;32.39;53.35
68109;SHT30;54893;49.864;19.084;2023-07-16T09:06:29;32.32;52.14
68109;SHT30;54893;49.864;19.084;2023-07-16T09:11:30;32.15;52.73
68109;SHT30;54893;49.864;19.084;2023-07-16T09:16:34;32.52;52.60
68109;SHT30;54893;49.864;19.084;2023-07-16T09:21:34;32.46;53.24
68109;SHT30;54893;49.864;19.084;2023-07-16T09:26:37;33.04;51.85
68109;SHT30;54893;49.864;19.084;2023-07-16T09:31:38;32.86;51.80
68109;SHT30;54893;49.864;19.084;2023-07-16T09:36:50;32.67;51.23
68109;SHT30;54893;49.864;19.084;2023-07-16T09:41:51;32.97;51.20
68109;SHT30;54893;49.864;19.084;2023-07-16T09:46:51;33.03;52.14
68109;SHT30;54893;49.864;19.084;2023-07-16T09:51:58;32.50;52.22
68109;SHT30;54893;49.864;19.084;2023-07-16T09:57:02;32.88;53.32
68109;SHT30;54893;49.864;19.084;2023-07-16T10:02:06;32.02;55.23
68109;SHT30;54893;49.864;19.084;2023-07-16T10:07:26;32.17;53.15
68109;SHT30;54893;49.864;19.084;2023-07-16T10:12:27;32.26;54.34
68109;SHT30;54893;49.864;19.084;2023-07-16T10:17:30;32.71;53.21
68109;SHT30;54893;49.864;19.084;2023-07-16T10:27:36;32.37;53.55
68109;SHT30;54893;49.864;19.084;2023-07-16T10:32:37;33.27;52.45
68109;SHT30;54893;49.864;19.084;2023-07-16T10:37:38;33.24;51.21
68109;SHT30;54893;49.864;19.084;2023-07-16T10:42:43;33.69;51.46
68109;SHT30;54893;49.864;19.084;2023-07-16T10:47:54;33.35;51.30
68109;SHT30;54893;49.864;19.084;2023-07-16T10:52:56;33.17;51.63
68109;SHT30;54893;49.864;19.084;2023-07-16T10:57:57;33.40;51.90
68109;SHT30;54893;49.864;19.084;2023-07-16T11:02:57;32.17;54.03
68109;SHT30;54893;49.864;19.084;2023-07-16T11:07:57;32.87;53.01
68109;SHT30;54893;49.864;19.084;2023-07-16T11:12:58;32.88;52.76
68109;SHT30;54893;49.864;19.084;2023-07-16T11:18:01;33.07;53.21
68109;SHT30;54893;49.864;19.084;2023-07-16T11:23:03;33.37;52.35
68109;SHT30;54893;49.864;19.084;2023-07-16T11:28:04;33.33;54.06
68109;SHT30;54893;49.864;19.084;2023-07-16T11:33:12;33.34;54.59
68109;SHT30;54893;49.864;19.084;2023-07-16T11:38:13;32.60;55.71
68109;SHT30;54893;49.864;19.084;2023-07-16T11:43:14;33.06;55.05
68109;SHT30;54893;49.864;19.084;2023-07-16T11:48:15;33.25;54.95
68109;SHT30;54893;49.864;19.084;2023-07-16T11:53:16;32.97;54.15
68109;SHT30;54893;49.864;19.084;2023-07-16T11:58:17;33.27;53.17
68109;SHT30;54893;49.864;19.084;2023-07-16T12:03:17;33.81;52.86
68109;SHT30;54893;49.864;19.084;2023-07-16T12:08:17;33.89;52.27
68109;SHT30;54893;49.864;19.084;2023-07-16T12:13:18;34.25;53.94
68109;SHT30;54893;49.864;19.084;2023-07-16T12:18:18;33.92;53.09
68109;SHT30;54893;49.864;19.084;2023-07-16T12:23:18;33.41;54.21
68109;SHT30;54893;49.864;19.084;2023-07-16T12:28:19;32.96;53.02
68109;SHT30;54893;49.864;19.084;2023-07-16T12:33:19;32.84;54.16
68109;SHT30;54893;49.864;19.084;2023-07-16T12:38:20;32.90;53.41
68109;SHT30;54893;49.864;19.084;2023-07-16T12:43:21;32.32;54.85
68109;SHT30;54893;49.864;19.084;2023-07-16T12:48:21;33.18;54.77
68109;SHT30;54893;49.864;19.084;2023-07-16T12:53:22;33.68;53.84
68109;SHT30;54893;49.864;19.084;2023-07-16T12:58:22;33.98;53.72
68109;SHT30;54893;49.864;19.084;2023-07-16T13:03:23;32.76;56.73
68109;SHT30;54893;49.864;19.084;2023-07-16T13:08:23;32.35;57.79
68109;SHT30;54893;49.864;19.084;2023-07-16T13:13:23;33.47;54.35
68109;SHT30;54893;49.864;19.084;2023-07-16T13:18:24;33.85;54.83
68109;SHT30;54893;49.864;19.084;2023-07-16T13:23:24;33.13;56.24
68109;SHT30;54893;49.864;19.084;2023-07-16T13:28:24;33.59;55.41
68109;SHT30;54893;49.864;19.084;2023-07-16T13:33:25;33.97;55.58
68109;SHT30;54893;49.864;19.084;2023-07-16T13:38:26;34.02;54.91
68109;SHT30;54893;49.864;19.084;2023-07-16T13:43:26;34.82;54.58
68109;SHT30;54893;49.864;19.084;2023-07-16T13:48:26;33.51;54.30
68109;SHT30;54893;49.864;19.084;2023-07-16T13:53:27;33.85;54.56
68109;SHT30;54893;49.864;19.084;2023-07-16T13:58:27;34.82;53.73
68109;SHT30;54893;49.864;19.084;2023-07-16T14:03:27;34.73;54.12
68109;SHT30;54893;49.864;19.084;2023-07-16T14:08:28;36.45;50.53
68109;SHT30;54893;49.864;19.084;2023-07-16T14:13:28;35.78;50.10
68109;SHT30;54893;49.864;19.084;2023-07-16T14:18:30;40.13;45.46
68109;SHT30;54893;49.864;19.084;2023-07-16T14:23:30;39.82;46.64
68109;SHT30;54893;49.864;19.084;2023-07-16T14:28:31;39.28;45.42
68109;SHT30;54893;49.864;19.084;2023-07-16T14:33:31;40.23;43.67
68109;SHT30;54893;49.864;19.084;2023-07-16T14:38:32;40.86;44.43
68109;SHT30;54893;49.864;19.084;2023-07-16T14:43:33;41.08;44.26
68109;SHT30;54893;49.864;19.084;2023-07-16T14:48:34;40.26;45.08
68109;SHT30;54893;49.864;19.084;2023-07-16T14:53:34;40.79;43.92
68109;SHT30;54893;49.864;19.084;2023-07-16T14:58:35;40.41;45.45
68109;SHT30;54893;49.864;19.084;2023-07-16T15:03:37;42.23;41.97
68109;SHT30;54893;49.864;19.084;2023-07-16T15:08:37;40.37;44.68
68109;SHT30;54893;49.864;19.084;2023-07-16T15:13:38;35.81;50.87
68109;SHT30;54893;49.864;19.084;2023-07-16T15:18:38;33.08;55.63
68109;SHT30;54893;49.864;19.084;2023-07-16T15:23:43;32.20;57.34
68109;SHT30;54893;49.864;19.084;2023-07-16T15:28:43;31.79;56.89
68109;SHT30;54893;49.864;19.084;2023-07-16T15:33:45;30.71;59.50
68109;SHT30;54893;49.864;19.084;2023-07-16T15:38:45;30.43;59.69
68109;SHT30;54893;49.864;19.084;2023-07-16T15:43:47;30.52;59.69
68109;SHT30;54893;49.864;19.084;2023-07-16T15:48:49;30.40;60.22
68109;SHT30;54893;49.864;19.084;2023-07-16T15:53:52;30.06;60.81
68109;SHT30;54893;49.864;19.084;2023-07-16T15:58:53;29.66;61.78
68109;SHT30;54893;49.864;19.084;2023-07-16T16:03:53;29.46;61.47
68109;SHT30;54893;49.864;19.084;2023-07-16T16:08:54;29.72;60.81
68109;SHT30;54893;49.864;19.084;2023-07-16T16:13:54;29.85;61.42
68109;SHT30;54893;49.864;19.084;2023-07-16T16:18:54;29.72;62.15
68109;SHT30;54893;49.864;19.084;2023-07-16T16:23:55;29.67;62.81
68109;SHT30;54893;49.864;19.084;2023-07-16T16:28:55;29.65;64.25
68109;SHT30;54893;49.864;19.084;2023-07-16T16:33:56;29.61;67.09
68109;SHT30;54893;49.864;19.084;2023-07-16T16:38:56;30.05;67.05
68109;SHT30;54893;49.864;19.084;2023-07-16T16:43:56;30.52;67.79
68109;SHT30;54893;49.864;19.084;2023-07-16T16:48:57;28.74;71.70
68109;SHT30;54893;49.864;19.084;2023-07-16T16:53:57;28.77;75.10
68109;SHT30;54893;49.864;19.084;2023-07-16T16:58:58;33.62;64.50
68109;SHT30;54893;49.864;19.084;2023-07-16T17:03:58;34.31;61.74
68109;SHT30;54893;49.864;19.084;2023-07-16T17:08:58;33.72;62.35
68109;SHT30;54893;49.864;19.084;2023-07-16T17:13:59;34.04;62.07
68109;SHT30;54893;49.864;19.084;2023-07-16T17:18:59;31.46;67.01
68109;SHT30;54893;49.864;19.084;2023-07-16T17:24:00;30.71;68.56
68109;SHT30;54893;49.864;19.084;2023-07-16T17:29:02;29.21;71.43
68109;SHT30;54893;49.864;19.084;2023-07-16T17:34:03;30.09;69.38
68109;SHT30;54893;49.864;19.084;2023-07-16T17:39:04;28.41;72.47
68109;SHT30;54893;49.864;19.084;2023-07-16T17:44:04;27.43;76.37
68109;SHT30;54893;49.864;19.084;2023-07-16T17:49:05;26.92;75.98
68109;SHT30;54893;49.864;19.084;2023-07-16T17:54:05;26.72;76.84
68109;SHT30;54893;49.864;19.084;2023-07-16T17:59:06;26.30;76.20
68109;SHT30;54893;49.864;19.084;2023-07-16T18:04:07;26.33;74.71
68109;SHT30;54893;49.864;19.084;2023-07-16T18:09:07;26.57;73.42
68109;SHT30;54893;49.864;19.084;2023-07-16T18:14:08;25.80;76.74
68109;SHT30;54893;49.864;19.084;2023-07-16T18:19:11;25.47;77.52
68109;SHT30;54893;49.864;19.084;2023-07-16T18:24:11;25.38;78.17
68109;SHT30;54893;49.864;19.084;2023-07-16T18:29:11;25.29;78.47
68109;SHT30;54893;49.864;19.084;2023-07-16T18:34:12;25.14;78.12
68109;SHT30;54893;49.864;19.084;2023-07-16T18:39:12;24.95;78.82
68109;SHT30;54893;49.864;19.084;2023-07-16T18:44:13;24.68;79.76
68109;SHT30;54893;49.864;19.084;2023-07-16T18:49:13;24.38;80.00
68109;SHT30;54893;49.864;19.084;2023-07-16T18:54:13;24.21;81.85
68109;SHT30;54893;49.864;19.084;2023-07-16T18:59:14;24.18;79.39
68109;SHT30;54893;49.864;19.084;2023-07-16T19:04:14;24.10;80.21
68109;SHT30;54893;49.864;19.084;2023-07-16T19:09:14;24.04;79.67
68109;SHT30;54893;49.864;19.084;2023-07-16T19:14:15;24.08;79.87
68109;SHT30;54893;49.864;19.084;2023-07-16T19:19:15;23.90;81.02
68109;SHT30;54893;49.864;19.084;2023-07-16T19:24:16;23.83;82.40
68109;SHT30;54893;49.864;19.084;2023-07-16T19:29:16;23.78;80.92
68109;SHT30;54893;49.864;19.084;2023-07-16T19:34:16;23.88;82.01
68109;SHT30;54893;49.864;19.084;2023-07-16T19:39:18;23.80;82.02
68109;SHT30;54893;49.864;19.084;2023-07-16T19:44:19;23.57;82.77
68109;SHT30;54893;49.864;19.084;2023-07-16T19:49:19;23.62;82.08
68109;SHT30;54893;49.864;19.084;2023-07-16T19:54:20;23.60;82.65
68109;SHT30;54893;49.864;19.084;2023-07-16T19:59:20;23.39;82.79
68109;SHT30;54893;49.864;19.084;2023-07-16T20:04:22;23.34;83.07
68109;SHT30;54893;49.864;19.084;2023-07-16T20:09:22;23.10;84.54
68109;SHT30;54893;49.864;19.084;2023-07-16T20:14:25;22.99;84.41
68109;SHT30;54893;49.864;19.084;2023-07-16T20:19:26;22.85;84.85
68109;SHT30;54893;49.864;19.084;2023-07-16T20:24:27;22.68;85.25
68109;SHT30;54893;49.864;19.084;2023-07-16T20:29:27;22.51;86.27
68109;SHT30;54893;49.864;19.084;2023-07-16T20:34:28;22.37;86.91
68109;SHT30;54893;49.864;19.084;2023-07-16T20:39:28;22.17;87.69
68109;SHT30;54893;49.864;19.084;2023-07-16T20:44:29;22.11;87.87
68109;SHT30;54893;49.864;19.084;2023-07-16T20:49:29;22.14;88.12
68109;SHT30;54893;49.864;19.084;2023-07-16T20:54:30;21.97;88.36
68109;SHT30;54893;49.864;19.084;2023-07-16T20:59:30;22.04;87.97
68109;SHT30;54893;49.864;19.084;2023-07-16T21:04:31;21.91;88.60
68109;SHT30;54893;49.864;19.084;2023-07-16T21:09:31;21.80;88.65
68109;SHT30;54893;49.864;19.084;2023-07-16T21:14:31;21.74;87.18
68109;SHT30;54893;49.864;19.084;2023-07-16T21:19:32;21.63;89.41
68109;SHT30;54893;49.864;19.084;2023-07-16T21:24:32;21.60;88.46
68109;SHT30;54893;49.864;19.084;2023-07-16T21:29:32;21.50;89.28
68109;SHT30;54893;49.864;19.084;2023-07-16T21:34:33;21.40;88.27
68109;SHT30;54893;49.864;19.084;2023-07-16T21:39:33;21.46;88.03
68109;SHT30;54893;49.864;19.084;2023-07-16T21:44:33;21.20;89.25
68109;SHT30;54893;49.864;19.084;2023-07-16T21:49:34;21.16;91.13
68109;SHT30;54893;49.864;19.084;2023-07-16T21:54:34;21.13;93.32
68109;SHT30;54893;49.864;19.084;2023-07-16T21:59:35;21.04;91.89
68109;SHT30;54893;49.864;19.084;2023-07-16T22:04:37;21.00;91.94
68109;SHT30;54893;49.864;19.084;2023-07-16T22:09:37;20.99;93.53
68109;SHT30;54893;49.864;19.084;2023-07-16T22:14:37;20.83;93.23
68109;SHT30;54893;49.864;19.084;2023-07-16T22:19:38;20.76;93.53
68109;SHT30;54893;49.864;19.084;2023-07-16T22:24:38;20.71;93.07
68109;SHT30;54893;49.864;19.084;2023-07-16T22:29:39;20.65;91.53
68109;SHT30;54893;49.864;19.084;2023-07-16T22:34:39;20.69;93.98
68109;SHT30;54893;49.864;19.084;2023-07-16T22:39:41;20.58;93.29
68109;SHT30;54893;49.864;19.084;2023-07-16T22:44:41;20.51;93.31
68109;SHT30;54893;49.864;19.084;2023-07-16T22:49:42;20.51;92.53
68109;SHT30;54893;49.864;19.084;2023-07-16T22:54:42;20.51;91.99
68109;SHT30;54893;49.864;19.084;2023-07-16T22:59:43;20.47;91.40
68109;SHT30;54893;49.864;19.084;2023-07-16T23:04:43;20.52;89.42
68109;SHT30;54893;49.864;19.084;2023-07-16T23:09:43;20.51;93.29
68109;SHT30;54893;49.864;19.084;2023-07-16T23:14:44;20.31;93.83
68109;SHT30;54893;49.864;19.084;2023-07-16T23:19:44;20.18;94.42
68109;SHT30;54893;49.864;19.084;2023-07-16T23:24:45;20.11;93.29
68109;SHT30;54893;49.864;19.084;2023-07-16T23:29:45;20.18;93.48
68109;SHT30;54893;49.864;19.084;2023-07-16T23:34:46;20.14;93.97
68109;SHT30;54893;49.864;19.084;2023-07-16T23:39:46;20.00;94.74
68109;SHT30;54893;49.864;19.084;2023-07-16T23:44:46;19.90;95.17
68109;SHT30;54893;49.864;19.084;2023-07-16T23:49:47;19.91;95.18
68109;SHT30;54893;49.864;19.084;2023-07-16T23:54:47;19.88;95.35
68109;SHT30;54893;49.864;19.084;2023-07-16T23:59:47;19.82;95.44
